Nearby METAR Data
EGNX - East Midlands, United Kingdom
Distance from station: SSE 24mi, 39km
Updated: 21/05/2019 18:20
Clear
Clear
 Wind from W
Wind: W 14 mph , 22 km/h
Temperature: 17°C
Dew Point: 0°C
Humidity: 32%
Barometer: 1019 hPa
Summary: Clear
Visibility: greater than 7 miles , 10 km
2019/05/21 17:20 EGNX 211720Z 27012KT CAVOK 17/00 Q1019
EGCN - Doncaster Sheffi, United Kingdom
Distance from station: NE 31mi, 49km
Updated: 21/05/2019 17:50
Clear
Clear
 Wind from WNW
Wind: WNW 15 mph , 24 km/h
Temperature: 19°C
Dew Point: 5°C
Humidity: 40%
Barometer: 1019 hPa
Summary: Clear
Visibility: greater than 7 miles , 10 km
2019/05/21 16:50 EGCN 211650Z 29013KT CAVOK 19/05 Q1019
 
EGXS - Swinderby Raf, United Kingdom
Distance from station: E 33mi, 54km
Updated: 21/05/2019 17:50
Clear
Clear
 Wind from ENE
Wind: ENE 6 mph , 9 km/h
Temperature: 13°C
Dew Point: 9°C
Humidity: 77%
Barometer: 1018 hPa
Clouds: Clear
Visibility: 6 miles , 10 km
2019/05/21 16:50 EGXS 211650Z AUTO 07005KT 9999 // NCD 13/09 Q1018
EGCC - Manchester Intl, United Kingdom
Distance from station: WNW 35mi, 56km
Updated: 21/05/2019 17:50
Clear
Clear
 Wind from WNW
Wind: WNW 10 mph , 17 km/h
Temperature: 15°C
Dew Point: 4°C
Humidity: 48%
Barometer: 1020 hPa
Clouds: Clear
Visibility: 6 miles , 10 km
2019/05/21 16:50 EGCC 211650Z AUTO 29009KT 9999 NCD 15/04 Q1020
 
EGXP - Scampton Raf, United Kingdom
Distance from station: ENE 40mi, 65km
Updated: 21/05/2019 17:50
Clear
Clear
 Wind from WNW
Wind: WNW 14 mph , 22 km/h
Temperature: 19°C
Dew Point: 6°C
Humidity: 43%
Barometer: 1017 hPa
Clouds: Clear
Visibility: 6 miles , 10 km
2019/05/21 16:50 EGXP 211650Z AUTO 30012KT 9999 // NCD 19/06 Q1017
EGXW - Waddington Raf, United Kingdom
Distance from station: E 40mi, 65km
Updated: 21/05/2019 17:50
Clear
Clear
 Wind from NW
Wind: NW 12 mph , 19 km/h
Temperature: 19°C
Dew Point: 5°C
Humidity: 40%
Barometer: 1018 hPa
Summary: Clear
Visibility: greater than 7 miles , 10 km
2019/05/21 16:50 EGXW 211650Z 32010KT CAVOK 19/05 Q1018 BLU NOSIG